sensor_id;sensor_type;location;lat;lon;timestamp;P1;durP1;ratioP1;P2;durP2;ratioP2
22490;SDS011;11412;50.802;4.350;2023-01-25T00:02:00;32.58;;;23.33;;
22490;SDS011;11412;50.802;4.350;2023-01-25T00:04:26;34.10;;;24.52;;
22490;SDS011;11412;50.802;4.350;2023-01-25T00:06:52;33.50;;;24.23;;
22490;SDS011;11412;50.802;4.350;2023-01-25T00:09:18;31.52;;;24.08;;
22490;SDS011;11412;50.802;4.350;2023-01-25T00:11:45;31.85;;;23.92;;
22490;SDS011;11412;50.802;4.350;2023-01-25T00:14:10;33.80;;;24.80;;
22490;SDS011;11412;50.802;4.350;2023-01-25T00:16:37;32.88;;;24.10;;
22490;SDS011;11412;50.802;4.350;2023-01-25T00:19:03;29.70;;;23.30;;
22490;SDS011;11412;50.802;4.350;2023-01-25T00:21:30;33.72;;;23.45;;
22490;SDS011;11412;50.802;4.350;2023-01-25T00:23:56;30.38;;;24.50;;
22490;SDS011;11412;50.802;4.350;2023-01-25T00:26:22;32.08;;;23.73;;
22490;SDS011;11412;50.802;4.350;2023-01-25T00:28:48;33.10;;;24.35;;
22490;SDS011;11412;50.802;4.350;2023-01-25T00:31:25;32.92;;;23.48;;
22490;SDS011;11412;50.802;4.350;2023-01-25T00:34:19;30.30;;;23.60;;
22490;SDS011;11412;50.802;4.350;2023-01-25T00:37:11;32.47;;;24.17;;
22490;SDS011;11412;50.802;4.350;2023-01-25T00:39:42;34.25;;;25.33;;
22490;SDS011;11412;50.802;4.350;2023-01-25T00:42:09;33.30;;;25.67;;
22490;SDS011;11412;50.802;4.350;2023-01-25T00:44:35;32.28;;;25.02;;
22490;SDS011;11412;50.802;4.350;2023-01-25T00:47:02;34.17;;;25.20;;
22490;SDS011;11412;50.802;4.350;2023-01-25T00:49:29;30.25;;;23.73;;
22490;SDS011;11412;50.802;4.350;2023-01-25T00:51:56;33.05;;;24.52;;
22490;SDS011;11412;50.802;4.350;2023-01-25T00:54:22;37.30;;;25.63;;
22490;SDS011;11412;50.802;4.350;2023-01-25T00:56:48;37.45;;;25.63;;
22490;SDS011;11412;50.802;4.350;2023-01-25T00:59:16;35.38;;;25.95;;
22490;SDS011;11412;50.802;4.350;2023-01-25T01:01:42;32.15;;;23.92;;
22490;SDS011;11412;50.802;4.350;2023-01-25T01:04:08;34.83;;;25.55;;
22490;SDS011;11412;50.802;4.350;2023-01-25T01:06:34;33.03;;;24.33;;
22490;SDS011;11412;50.802;4.350;2023-01-25T01:09:01;32.72;;;23.90;;
22490;SDS011;11412;50.802;4.350;2023-01-25T01:11:27;33.72;;;24.38;;
22490;SDS011;11412;50.802;4.350;2023-01-25T01:13:55;33.90;;;24.23;;
22490;SDS011;11412;50.802;4.350;2023-01-25T01:16:21;32.83;;;22.75;;
22490;SDS011;11412;50.802;4.350;2023-01-25T01:18:47;28.75;;;22.85;;
22490;SDS011;11412;50.802;4.350;2023-01-25T01:21:13;30.70;;;22.02;;
22490;SDS011;11412;50.802;4.350;2023-01-25T01:23:39;31.13;;;23.48;;
22490;SDS011;11412;50.802;4.350;2023-01-25T01:26:06;31.50;;;22.95;;
22490;SDS011;11412;50.802;4.350;2023-01-25T01:28:34;28.90;;;23.08;;
22490;SDS011;11412;50.802;4.350;2023-01-25T01:31:03;31.45;;;22.10;;
22490;SDS011;11412;50.802;4.350;2023-01-25T01:33:30;30.58;;;22.70;;
22490;SDS011;11412;50.802;4.350;2023-01-25T01:35:56;32.03;;;23.25;;
22490;SDS011;11412;50.802;4.350;2023-01-25T01:38:22;30.85;;;23.38;;
22490;SDS011;11412;50.802;4.350;2023-01-25T01:40:48;29.10;;;22.17;;
22490;SDS011;11412;50.802;4.350;2023-01-25T01:43:21;31.42;;;22.73;;
22490;SDS011;11412;50.802;4.350;2023-01-25T01:48:59;30.98;;;23.50;;
22490;SDS011;11412;50.802;4.350;2023-01-25T01:54:10;30.55;;;23.58;;
22490;SDS011;11412;50.802;4.350;2023-01-25T01:59:30;31.08;;;24.80;;
22490;SDS011;11412;50.802;4.350;2023-01-25T02:02:17;34.95;;;24.85;;
22490;SDS011;11412;50.802;4.350;2023-01-25T02:04:44;35.78;;;24.55;;
22490;SDS011;11412;50.802;4.350;2023-01-25T02:07:19;33.75;;;25.45;;
22490;SDS011;11412;50.802;4.350;2023-01-25T02:09:49;32.58;;;25.30;;
22490;SDS011;11412;50.802;4.350;2023-01-25T02:12:16;33.50;;;24.83;;
22490;SDS011;11412;50.802;4.350;2023-01-25T02:14:47;34.83;;;26.48;;
22490;SDS011;11412;50.802;4.350;2023-01-25T02:17:14;32.33;;;25.15;;
22490;SDS011;11412;50.802;4.350;2023-01-25T02:22:10;32.15;;;24.30;;
22490;SDS011;11412;50.802;4.350;2023-01-25T02:24:41;32.22;;;24.13;;
22490;SDS011;11412;50.802;4.350;2023-01-25T02:27:14;32.13;;;23.52;;
22490;SDS011;11412;50.802;4.350;2023-01-25T02:29:40;31.92;;;24.48;;
22490;SDS011;11412;50.802;4.350;2023-01-25T02:32:07;33.13;;;24.88;;
22490;SDS011;11412;50.802;4.350;2023-01-25T02:34:33;31.27;;;24.33;;
22490;SDS011;11412;50.802;4.350;2023-01-25T02:37:00;31.30;;;23.90;;
22490;SDS011;11412;50.802;4.350;2023-01-25T02:39:26;35.17;;;24.65;;
22490;SDS011;11412;50.802;4.350;2023-01-25T02:41:52;32.00;;;24.45;;
22490;SDS011;11412;50.802;4.350;2023-01-25T02:46:46;33.03;;;24.40;;
22490;SDS011;11412;50.802;4.350;2023-01-25T02:49:13;32.08;;;24.52;;
22490;SDS011;11412;50.802;4.350;2023-01-25T02:51:41;31.63;;;24.45;;
22490;SDS011;11412;50.802;4.350;2023-01-25T02:54:10;32.15;;;24.25;;
22490;SDS011;11412;50.802;4.350;2023-01-25T02:56:37;32.90;;;24.33;;
22490;SDS011;11412;50.802;4.350;2023-01-25T02:59:05;31.67;;;24.52;;
22490;SDS011;11412;50.802;4.350;2023-01-25T03:01:32;32.10;;;24.75;;
22490;SDS011;11412;50.802;4.350;2023-01-25T03:03:58;32.63;;;24.88;;
22490;SDS011;11412;50.802;4.350;2023-01-25T03:06:24;34.45;;;24.63;;
22490;SDS011;11412;50.802;4.350;2023-01-25T03:08:49;31.63;;;23.98;;
22490;SDS011;11412;50.802;4.350;2023-01-25T03:11:15;30.77;;;24.33;;
22490;SDS011;11412;50.802;4.350;2023-01-25T03:13:41;30.75;;;23.52;;
22490;SDS011;11412;50.802;4.350;2023-01-25T03:16:08;34.97;;;25.00;;
22490;SDS011;11412;50.802;4.350;2023-01-25T03:18:35;31.65;;;24.45;;
22490;SDS011;11412;50.802;4.350;2023-01-25T03:23:31;28.67;;;22.65;;
22490;SDS011;11412;50.802;4.350;2023-01-25T03:26:10;32.13;;;23.85;;
22490;SDS011;11412;50.802;4.350;2023-01-25T03:28:38;36.70;;;24.80;;
22490;SDS011;11412;50.802;4.350;2023-01-25T03:31:05;29.05;;;23.38;;
22490;SDS011;11412;50.802;4.350;2023-01-25T03:33:31;33.10;;;24.80;;
22490;SDS011;11412;50.802;4.350;2023-01-25T03:35:57;30.23;;;24.00;;
22490;SDS011;11412;50.802;4.350;2023-01-25T03:38:24;32.05;;;24.75;;
22490;SDS011;11412;50.802;4.350;2023-01-25T03:40:50;31.40;;;24.20;;
22490;SDS011;11412;50.802;4.350;2023-01-25T03:43:15;33.83;;;23.23;;
22490;SDS011;11412;50.802;4.350;2023-01-25T03:45:41;29.98;;;23.17;;
22490;SDS011;11412;50.802;4.350;2023-01-25T03:48:07;32.40;;;25.05;;
22490;SDS011;11412;50.802;4.350;2023-01-25T03:50:33;31.15;;;24.13;;
22490;SDS011;11412;50.802;4.350;2023-01-25T03:52:58;32.17;;;23.67;;
22490;SDS011;11412;50.802;4.350;2023-01-25T03:55:34;33.58;;;23.33;;
22490;SDS011;11412;50.802;4.350;2023-01-25T03:57:59;31.48;;;24.90;;
22490;SDS011;11412;50.802;4.350;2023-01-25T04:00:25;31.08;;;23.45;;
22490;SDS011;11412;50.802;4.350;2023-01-25T04:02:51;31.35;;;22.52;;
22490;SDS011;11412;50.802;4.350;2023-01-25T04:05:17;32.15;;;24.02;;
22490;SDS011;11412;50.802;4.350;2023-01-25T04:07:43;29.27;;;23.25;;
22490;SDS011;11412;50.802;4.350;2023-01-25T04:10:09;32.80;;;24.52;;
22490;SDS011;11412;50.802;4.350;2023-01-25T04:12:35;29.27;;;23.48;;
22490;SDS011;11412;50.802;4.350;2023-01-25T04:15:00;29.98;;;23.02;;
22490;SDS011;11412;50.802;4.350;2023-01-25T04:17:26;31.80;;;23.50;;
22490;SDS011;11412;50.802;4.350;2023-01-25T04:19:51;30.73;;;23.67;;
22490;SDS011;11412;50.802;4.350;2023-01-25T04:22:17;31.48;;;24.25;;
22490;SDS011;11412;50.802;4.350;2023-01-25T04:24:43;32.05;;;25.25;;
22490;SDS011;11412;50.802;4.350;2023-01-25T04:27:09;31.38;;;23.83;;
22490;SDS011;11412;50.802;4.350;2023-01-25T04:29:34;33.60;;;25.35;;
22490;SDS011;11412;50.802;4.350;2023-01-25T04:32:00;32.83;;;24.30;;
22490;SDS011;11412;50.802;4.350;2023-01-25T04:34:26;30.27;;;23.88;;
22490;SDS011;11412;50.802;4.350;2023-01-25T04:36:52;32.33;;;23.23;;
22490;SDS011;11412;50.802;4.350;2023-01-25T04:39:18;27.42;;;22.67;;
22490;SDS011;11412;50.802;4.350;2023-01-25T04:41:44;30.58;;;23.00;;
22490;SDS011;11412;50.802;4.350;2023-01-25T04:44:09;31.70;;;24.05;;
22490;SDS011;11412;50.802;4.350;2023-01-25T04:46:35;33.10;;;24.73;;
22490;SDS011;11412;50.802;4.350;2023-01-25T04:49:01;32.85;;;24.52;;
22490;SDS011;11412;50.802;4.350;2023-01-25T04:51:27;31.00;;;24.00;;
22490;SDS011;11412;50.802;4.350;2023-01-25T04:53:52;29.55;;;22.95;;
22490;SDS011;11412;50.802;4.350;2023-01-25T04:56:18;31.00;;;23.50;;
22490;SDS011;11412;50.802;4.350;2023-01-25T04:58:44;32.60;;;24.50;;
22490;SDS011;11412;50.802;4.350;2023-01-25T05:01:09;31.85;;;23.10;;
22490;SDS011;11412;50.802;4.350;2023-01-25T05:03:35;35.53;;;25.75;;
22490;SDS011;11412;50.802;4.350;2023-01-25T05:06:01;30.40;;;22.95;;
22490;SDS011;11412;50.802;4.350;2023-01-25T05:08:26;30.10;;;23.63;;
22490;SDS011;11412;50.802;4.350;2023-01-25T05:10:52;34.10;;;24.98;;
22490;SDS011;11412;50.802;4.350;2023-01-25T05:13:18;36.90;;;25.50;;
22490;SDS011;11412;50.802;4.350;2023-01-25T05:15:43;31.77;;;24.98;;
22490;SDS011;11412;50.802;4.350;2023-01-25T05:18:09;32.67;;;24.23;;
22490;SDS011;11412;50.802;4.350;2023-01-25T05:20:35;33.50;;;24.40;;
22490;SDS011;11412;50.802;4.350;2023-01-25T05:23:00;33.83;;;24.48;;
22490;SDS011;11412;50.802;4.350;2023-01-25T05:25:26;32.47;;;24.92;;
22490;SDS011;11412;50.802;4.350;2023-01-25T05:28:11;32.83;;;25.27;;
22490;SDS011;11412;50.802;4.350;2023-01-25T05:30:36;30.95;;;22.90;;
22490;SDS011;11412;50.802;4.350;2023-01-25T05:33:02;36.28;;;25.27;;
22490;SDS011;11412;50.802;4.350;2023-01-25T05:35:28;33.63;;;25.42;;
22490;SDS011;11412;50.802;4.350;2023-01-25T05:37:57;34.70;;;25.83;;
22490;SDS011;11412;50.802;4.350;2023-01-25T05:40:23;32.20;;;24.95;;
22490;SDS011;11412;50.802;4.350;2023-01-25T05:42:58;36.25;;;26.33;;
22490;SDS011;11412;50.802;4.350;2023-01-25T05:45:24;34.67;;;26.17;;
22490;SDS011;11412;50.802;4.350;2023-01-25T05:47:53;32.97;;;25.08;;
22490;SDS011;11412;50.802;4.350;2023-01-25T05:50:21;36.28;;;25.80;;
22490;SDS011;11412;50.802;4.350;2023-01-25T05:52:47;35.25;;;26.25;;
22490;SDS011;11412;50.802;4.350;2023-01-25T05:55:15;36.75;;;26.33;;
22490;SDS011;11412;50.802;4.350;2023-01-25T05:57:41;34.00;;;25.80;;
22490;SDS011;11412;50.802;4.350;2023-01-25T06:00:07;32.00;;;25.40;;
22490;SDS011;11412;50.802;4.350;2023-01-25T06:02:34;33.22;;;26.00;;
22490;SDS011;11412;50.802;4.350;2023-01-25T06:04:59;36.28;;;27.63;;
22490;SDS011;11412;50.802;4.350;2023-01-25T06:07:25;36.58;;;26.33;;
22490;SDS011;11412;50.802;4.350;2023-01-25T06:09:50;38.35;;;26.08;;
22490;SDS011;11412;50.802;4.350;2023-01-25T06:12:19;33.63;;;25.85;;
22490;SDS011;11412;50.802;4.350;2023-01-25T06:14:45;35.75;;;27.60;;
22490;SDS011;11412;50.802;4.350;2023-01-25T06:17:11;35.45;;;25.67;;
22490;SDS011;11412;50.802;4.350;2023-01-25T06:19:38;32.38;;;24.83;;
22490;SDS011;11412;50.802;4.350;2023-01-25T06:22:03;35.83;;;26.85;;
22490;SDS011;11412;50.802;4.350;2023-01-25T06:24:29;37.97;;;28.17;;
22490;SDS011;11412;50.802;4.350;2023-01-25T06:26:55;36.83;;;27.20;;
22490;SDS011;11412;50.802;4.350;2023-01-25T06:29:21;36.25;;;26.23;;
22490;SDS011;11412;50.802;4.350;2023-01-25T06:31:46;34.30;;;26.13;;
22490;SDS011;11412;50.802;4.350;2023-01-25T06:34:12;37.40;;;27.83;;
22490;SDS011;11412;50.802;4.350;2023-01-25T06:36:38;38.42;;;28.27;;
22490;SDS011;11412;50.802;4.350;2023-01-25T06:39:03;35.10;;;26.92;;
22490;SDS011;11412;50.802;4.350;2023-01-25T06:41:29;38.25;;;27.08;;
22490;SDS011;11412;50.802;4.350;2023-01-25T06:43:55;36.55;;;26.50;;
22490;SDS011;11412;50.802;4.350;2023-01-25T06:46:21;36.60;;;25.50;;
22490;SDS011;11412;50.802;4.350;2023-01-25T06:48:47;35.45;;;26.90;;
22490;SDS011;11412;50.802;4.350;2023-01-25T06:51:13;38.75;;;27.27;;
22490;SDS011;11412;50.802;4.350;2023-01-25T06:53:40;41.63;;;27.73;;
22490;SDS011;11412;50.802;4.350;2023-01-25T06:56:12;35.75;;;25.95;;
22490;SDS011;11412;50.802;4.350;2023-01-25T06:58:42;34.58;;;26.48;;
22490;SDS011;11412;50.802;4.350;2023-01-25T07:01:12;35.70;;;26.92;;
22490;SDS011;11412;50.802;4.350;2023-01-25T07:03:51;37.13;;;28.15;;
22490;SDS011;11412;50.802;4.350;2023-01-25T07:06:18;41.30;;;28.52;;
22490;SDS011;11412;50.802;4.350;2023-01-25T07:08:44;36.92;;;28.17;;
22490;SDS011;11412;50.802;4.350;2023-01-25T07:11:11;36.08;;;27.00;;
22490;SDS011;11412;50.802;4.350;2023-01-25T07:13:38;39.00;;;27.77;;
22490;SDS011;11412;50.802;4.350;2023-01-25T07:16:13;40.55;;;27.55;;
22490;SDS011;11412;50.802;4.350;2023-01-25T07:18:40;40.63;;;29.35;;
22490;SDS011;11412;50.802;4.350;2023-01-25T07:21:13;38.88;;;28.88;;
22490;SDS011;11412;50.802;4.350;2023-01-25T07:23:40;38.15;;;26.98;;
22490;SDS011;11412;50.802;4.350;2023-01-25T07:26:17;36.40;;;27.50;;
22490;SDS011;11412;50.802;4.350;2023-01-25T07:28:45;42.42;;;29.33;;
22490;SDS011;11412;50.802;4.350;2023-01-25T07:31:11;42.80;;;30.42;;
22490;SDS011;11412;50.802;4.350;2023-01-25T07:33:38;39.65;;;29.00;;
22490;SDS011;11412;50.802;4.350;2023-01-25T07:36:05;41.33;;;28.98;;
22490;SDS011;11412;50.802;4.350;2023-01-25T07:38:32;42.67;;;28.20;;
22490;SDS011;11412;50.802;4.350;2023-01-25T07:40:58;38.00;;;29.85;;
22490;SDS011;11412;50.802;4.350;2023-01-25T07:43:24;40.17;;;28.75;;
22490;SDS011;11412;50.802;4.350;2023-01-25T07:45:51;37.75;;;29.45;;
22490;SDS011;11412;50.802;4.350;2023-01-25T07:48:18;41.25;;;29.83;;
22490;SDS011;11412;50.802;4.350;2023-01-25T07:50:44;46.67;;;30.58;;
22490;SDS011;11412;50.802;4.350;2023-01-25T07:53:13;39.88;;;30.02;;
22490;SDS011;11412;50.802;4.350;2023-01-25T07:55:41;40.15;;;28.90;;
22490;SDS011;11412;50.802;4.350;2023-01-25T07:58:09;41.70;;;30.33;;
22490;SDS011;11412;50.802;4.350;2023-01-25T08:00:35;40.88;;;29.38;;
22490;SDS011;11412;50.802;4.350;2023-01-25T08:03:01;39.95;;;29.33;;
22490;SDS011;11412;50.802;4.350;2023-01-25T08:05:26;38.97;;;29.17;;
22490;SDS011;11412;50.802;4.350;2023-01-25T08:07:52;44.72;;;31.17;;
22490;SDS011;11412;50.802;4.350;2023-01-25T08:10:18;40.33;;;30.48;;
22490;SDS011;11412;50.802;4.350;2023-01-25T08:12:44;45.15;;;30.48;;
22490;SDS011;11412;50.802;4.350;2023-01-25T08:15:10;43.72;;;30.15;;
22490;SDS011;11412;50.802;4.350;2023-01-25T08:17:37;42.10;;;30.27;;
22490;SDS011;11412;50.802;4.350;2023-01-25T08:20:03;42.50;;;28.88;;
22490;SDS011;11412;50.802;4.350;2023-01-25T08:22:30;39.80;;;29.65;;
22490;SDS011;11412;50.802;4.350;2023-01-25T08:24:55;41.92;;;29.15;;
22490;SDS011;11412;50.802;4.350;2023-01-25T08:27:21;47.08;;;30.85;;
22490;SDS011;11412;50.802;4.350;2023-01-25T08:29:47;42.90;;;31.25;;
22490;SDS011;11412;50.802;4.350;2023-01-25T08:32:14;42.97;;;32.10;;
22490;SDS011;11412;50.802;4.350;2023-01-25T08:34:40;47.97;;;31.98;;
22490;SDS011;11412;50.802;4.350;2023-01-25T08:37:06;46.05;;;31.08;;
22490;SDS011;11412;50.802;4.350;2023-01-25T08:39:32;47.38;;;31.73;;
22490;SDS011;11412;50.802;4.350;2023-01-25T08:41:58;44.00;;;32.05;;
22490;SDS011;11412;50.802;4.350;2023-01-25T08:44:23;44.72;;;30.17;;
22490;SDS011;11412;50.802;4.350;2023-01-25T08:46:50;45.83;;;31.58;;
22490;SDS011;11412;50.802;4.350;2023-01-25T08:49:16;48.05;;;33.15;;
22490;SDS011;11412;50.802;4.350;2023-01-25T08:51:42;47.80;;;31.30;;
22490;SDS011;11412;50.802;4.350;2023-01-25T08:54:09;44.03;;;31.55;;
22490;SDS011;11412;50.802;4.350;2023-01-25T08:56:37;45.92;;;31.45;;
22490;SDS011;11412;50.802;4.350;2023-01-25T08:59:06;43.42;;;30.92;;
22490;SDS011;11412;50.802;4.350;2023-01-25T09:01:35;42.60;;;30.45;;
22490;SDS011;11412;50.802;4.350;2023-01-25T09:04:01;42.28;;;31.10;;
22490;SDS011;11412;50.802;4.350;2023-01-25T09:06:26;46.88;;;32.25;;
22490;SDS011;11412;50.802;4.350;2023-01-25T09:08:52;43.50;;;32.35;;
22490;SDS011;11412;50.802;4.350;2023-01-25T09:11:19;42.95;;;30.63;;
22490;SDS011;11412;50.802;4.350;2023-01-25T09:13:46;44.05;;;31.17;;
22490;SDS011;11412;50.802;4.350;2023-01-25T09:16:14;45.55;;;30.83;;
22490;SDS011;11412;50.802;4.350;2023-01-25T09:18:41;50.08;;;31.65;;
22490;SDS011;11412;50.802;4.350;2023-01-25T09:21:18;46.03;;;32.75;;
22490;SDS011;11412;50.802;4.350;2023-01-25T09:23:46;46.22;;;32.45;;
22490;SDS011;11412;50.802;4.350;2023-01-25T09:26:13;48.75;;;31.70;;
22490;SDS011;11412;50.802;4.350;2023-01-25T09:28:39;47.97;;;31.92;;
22490;SDS011;11412;50.802;4.350;2023-01-25T09:31:06;48.67;;;31.60;;
22490;SDS011;11412;50.802;4.350;2023-01-25T09:33:33;48.60;;;33.30;;
22490;SDS011;11412;50.802;4.350;2023-01-25T09:36:00;54.33;;;34.25;;
22490;SDS011;11412;50.802;4.350;2023-01-25T09:38:28;44.47;;;32.28;;
22490;SDS011;11412;50.802;4.350;2023-01-25T09:41:06;59.95;;;38.42;;
22490;SDS011;11412;50.802;4.350;2023-01-25T09:46:50;60.60;;;40.10;;
22490;SDS011;11412;50.802;4.350;2023-01-25T09:55:29;48.55;;;34.97;;
22490;SDS011;11412;50.802;4.350;2023-01-25T09:57:55;53.85;;;34.67;;
22490;SDS011;11412;50.802;4.350;2023-01-25T10:00:27;47.67;;;32.90;;
22490;SDS011;11412;50.802;4.350;2023-01-25T10:05:41;52.65;;;36.40;;
22490;SDS011;11412;50.802;4.350;2023-01-25T10:11:22;56.60;;;37.97;;
22490;SDS011;11412;50.802;4.350;2023-01-25T10:13:52;56.55;;;37.83;;
22490;SDS011;11412;50.802;4.350;2023-01-25T10:16:43;58.05;;;38.85;;
22490;SDS011;11412;50.802;4.350;2023-01-25T10:19:19;58.00;;;38.83;;
22490;SDS011;11412;50.802;4.350;2023-01-25T10:24:34;62.33;;;39.88;;
22490;SDS011;11412;50.802;4.350;2023-01-25T10:29:40;58.67;;;37.58;;
22490;SDS011;11412;50.802;4.350;2023-01-25T10:35:00;52.80;;;34.10;;
22490;SDS011;11412;50.802;4.350;2023-01-25T10:37:38;51.38;;;35.28;;
22490;SDS011;11412;50.802;4.350;2023-01-25T10:40:13;55.65;;;37.60;;
22490;SDS011;11412;50.802;4.350;2023-01-25T10:42:44;58.05;;;38.22;;
22490;SDS011;11412;50.802;4.350;2023-01-25T10:45:15;58.22;;;38.13;;
22490;SDS011;11412;50.802;4.350;2023-01-25T10:47:42;54.63;;;36.60;;
22490;SDS011;11412;50.802;4.350;2023-01-25T10:58:40;56.78;;;37.08;;
22490;SDS011;11412;50.802;4.350;2023-01-25T11:01:08;55.15;;;37.70;;
22490;SDS011;11412;50.802;4.350;2023-01-25T11:04:20;59.65;;;37.08;;
22490;SDS011;11412;50.802;4.350;2023-01-25T11:06:59;58.65;;;39.15;;
22490;SDS011;11412;50.802;4.350;2023-01-25T11:12:15;56.30;;;38.05;;
22490;SDS011;11412;50.802;4.350;2023-01-25T11:14:43;54.65;;;36.55;;
22490;SDS011;11412;50.802;4.350;2023-01-25T11:17:26;58.90;;;39.50;;
22490;SDS011;11412;50.802;4.350;2023-01-25T11:25:24;57.63;;;38.28;;
22490;SDS011;11412;50.802;4.350;2023-01-25T11:30:40;56.55;;;37.00;;
22490;SDS011;11412;50.802;4.350;2023-01-25T11:33:10;57.65;;;40.67;;
22490;SDS011;11412;50.802;4.350;2023-01-25T11:35:40;63.75;;;38.80;;
22490;SDS011;11412;50.802;4.350;2023-01-25T11:38:23;60.78;;;39.25;;
22490;SDS011;11412;50.802;4.350;2023-01-25T11:41:03;58.55;;;39.45;;
22490;SDS011;11412;50.802;4.350;2023-01-25T11:49:46;57.70;;;38.38;;
22490;SDS011;11412;50.802;4.350;2023-01-25T11:55:34;58.42;;;38.72;;
22490;SDS011;11412;50.802;4.350;2023-01-25T12:04:05;62.80;;;38.40;;
22490;SDS011;11412;50.802;4.350;2023-01-25T12:06:56;61.28;;;38.58;;
22490;SDS011;11412;50.802;4.350;2023-01-25T12:21:04;56.85;;;37.30;;
22490;SDS011;11412;50.802;4.350;2023-01-25T12:23:51;60.15;;;38.17;;
22490;SDS011;11412;50.802;4.350;2023-01-25T12:29:43;56.08;;;37.95;;
22490;SDS011;11412;50.802;4.350;2023-01-25T12:33:02;56.95;;;36.78;;
22490;SDS011;11412;50.802;4.350;2023-01-25T12:35:36;56.88;;;38.72;;
22490;SDS011;11412;50.802;4.350;2023-01-25T12:55:04;58.53;;;39.40;;
22490;SDS011;11412;50.802;4.350;2023-01-25T13:00:24;54.40;;;35.45;;
22490;SDS011;11412;50.802;4.350;2023-01-25T13:08:57;56.80;;;36.88;;
22490;SDS011;11412;50.802;4.350;2023-01-25T13:11:45;57.17;;;36.67;;
22490;SDS011;11412;50.802;4.350;2023-01-25T13:19:19;55.53;;;37.17;;
22490;SDS011;11412;50.802;4.350;2023-01-25T13:21:47;54.92;;;35.90;;
22490;SDS011;11412;50.802;4.350;2023-01-25T13:32:03;56.53;;;36.75;;
22490;SDS011;11412;50.802;4.350;2023-01-25T13:37:01;56.45;;;36.33;;
22490;SDS011;11412;50.802;4.350;2023-01-25T13:39:42;59.28;;;36.88;;
22490;SDS011;11412;50.802;4.350;2023-01-25T13:44:45;50.80;;;34.45;;
22490;SDS011;11412;50.802;4.350;2023-01-25T13:47:18;54.55;;;34.58;;
22490;SDS011;11412;50.802;4.350;2023-01-25T13:50:07;58.50;;;36.28;;
22490;SDS011;11412;50.802;4.350;2023-01-25T13:52:55;52.53;;;35.63;;
22490;SDS011;11412;50.802;4.350;2023-01-25T13:55:21;54.53;;;35.47;;
22490;SDS011;11412;50.802;4.350;2023-01-25T13:57:47;56.67;;;34.45;;
22490;SDS011;11412;50.802;4.350;2023-01-25T14:00:13;51.92;;;34.42;;
22490;SDS011;11412;50.802;4.350;2023-01-25T14:02:40;50.75;;;33.72;;
22490;SDS011;11412;50.802;4.350;2023-01-25T14:05:18;54.25;;;34.53;;
22490;SDS011;11412;50.802;4.350;2023-01-25T14:07:46;53.50;;;35.35;;
22490;SDS011;11412;50.802;4.350;2023-01-25T14:10:15;53.60;;;33.67;;
22490;SDS011;11412;50.802;4.350;2023-01-25T14:12:47;48.33;;;32.33;;
22490;SDS011;11412;50.802;4.350;2023-01-25T14:17:43;53.22;;;35.63;;
22490;SDS011;11412;50.802;4.350;2023-01-25T14:20:18;54.85;;;36.28;;
22490;SDS011;11412;50.802;4.350;2023-01-25T14:22:46;53.33;;;35.05;;
22490;SDS011;11412;50.802;4.350;2023-01-25T14:25:20;49.97;;;33.35;;
22490;SDS011;11412;50.802;4.350;2023-01-25T14:27:50;52.07;;;34.83;;
22490;SDS011;11412;50.802;4.350;2023-01-25T14:30:26;56.55;;;35.92;;
22490;SDS011;11412;50.802;4.350;2023-01-25T14:32:54;55.00;;;35.03;;
22490;SDS011;11412;50.802;4.350;2023-01-25T14:38:01;53.28;;;35.20;;
22490;SDS011;11412;50.802;4.350;2023-01-25T14:40:42;53.97;;;35.42;;
22490;SDS011;11412;50.802;4.350;2023-01-25T14:43:09;57.10;;;37.00;;
22490;SDS011;11412;50.802;4.350;2023-01-25T14:45:38;60.13;;;38.25;;
22490;SDS011;11412;50.802;4.350;2023-01-25T14:48:04;59.10;;;38.10;;
22490;SDS011;11412;50.802;4.350;2023-01-25T14:50:36;55.25;;;37.15;;
22490;SDS011;11412;50.802;4.350;2023-01-25T14:53:18;56.10;;;37.78;;
22490;SDS011;11412;50.802;4.350;2023-01-25T14:55:47;55.80;;;37.40;;
22490;SDS011;11412;50.802;4.350;2023-01-25T14:58:18;59.45;;;38.90;;
22490;SDS011;11412;50.802;4.350;2023-01-25T15:01:05;57.30;;;37.65;;
22490;SDS011;11412;50.802;4.350;2023-01-25T15:03:40;56.45;;;36.33;;
22490;SDS011;11412;50.802;4.350;2023-01-25T15:06:08;53.47;;;36.92;;
22490;SDS011;11412;50.802;4.350;2023-01-25T15:08:37;63.72;;;39.75;;
22490;SDS011;11412;50.802;4.350;2023-01-25T15:11:04;59.03;;;37.47;;
22490;SDS011;11412;50.802;4.350;2023-01-25T15:14:15;57.90;;;39.38;;
22490;SDS011;11412;50.802;4.350;2023-01-25T15:16:44;62.40;;;39.38;;
22490;SDS011;11412;50.802;4.350;2023-01-25T15:19:20;62.70;;;40.25;;
22490;SDS011;11412;50.802;4.350;2023-01-25T15:21:47;61.90;;;40.80;;
22490;SDS011;11412;50.802;4.350;2023-01-25T15:24:13;63.67;;;40.35;;
22490;SDS011;11412;50.802;4.350;2023-01-25T15:26:38;63.28;;;38.47;;
22490;SDS011;11412;50.802;4.350;2023-01-25T15:29:09;64.00;;;41.25;;
22490;SDS011;11412;50.802;4.350;2023-01-25T15:31:37;64.00;;;40.23;;
22490;SDS011;11412;50.802;4.350;2023-01-25T15:34:08;61.28;;;39.28;;
22490;SDS011;11412;50.802;4.350;2023-01-25T15:36:39;65.63;;;39.53;;
22490;SDS011;11412;50.802;4.350;2023-01-25T15:39:09;62.83;;;38.47;;
22490;SDS011;11412;50.802;4.350;2023-01-25T15:41:37;66.90;;;39.80;;
22490;SDS011;11412;50.802;4.350;2023-01-25T15:44:03;60.33;;;39.20;;
22490;SDS011;11412;50.802;4.350;2023-01-25T15:46:29;62.88;;;39.90;;
22490;SDS011;11412;50.802;4.350;2023-01-25T15:48:57;63.63;;;40.42;;
22490;SDS011;11412;50.802;4.350;2023-01-25T15:51:24;66.60;;;41.10;;
22490;SDS011;11412;50.802;4.350;2023-01-25T15:53:50;63.83;;;40.05;;
22490;SDS011;11412;50.802;4.350;2023-01-25T15:56:20;62.63;;;39.50;;
22490;SDS011;11412;50.802;4.350;2023-01-25T15:58:59;64.80;;;40.65;;
22490;SDS011;11412;50.802;4.350;2023-01-25T16:01:29;66.40;;;41.42;;
22490;SDS011;11412;50.802;4.350;2023-01-25T16:03:56;65.35;;;40.45;;
22490;SDS011;11412;50.802;4.350;2023-01-25T16:06:28;65.22;;;40.50;;
22490;SDS011;11412;50.802;4.350;2023-01-25T16:09:10;64.47;;;41.03;;
22490;SDS011;11412;50.802;4.350;2023-01-25T16:11:55;66.68;;;42.17;;
22490;SDS011;11412;50.802;4.350;2023-01-25T16:14:23;68.53;;;41.00;;
22490;SDS011;11412;50.802;4.350;2023-01-25T16:16:53;70.97;;;44.10;;
22490;SDS011;11412;50.802;4.350;2023-01-25T16:19:21;68.47;;;41.55;;
22490;SDS011;11412;50.802;4.350;2023-01-25T16:21:48;66.28;;;40.70;;
22490;SDS011;11412;50.802;4.350;2023-01-25T16:24:14;68.80;;;42.88;;
22490;SDS011;11412;50.802;4.350;2023-01-25T16:26:44;64.45;;;40.10;;
22490;SDS011;11412;50.802;4.350;2023-01-25T16:29:14;68.40;;;40.47;;
22490;SDS011;11412;50.802;4.350;2023-01-25T16:31:40;66.22;;;40.13;;
22490;SDS011;11412;50.802;4.350;2023-01-25T16:34:05;70.75;;;42.85;;
22490;SDS011;11412;50.802;4.350;2023-01-25T16:36:31;67.82;;;40.25;;
22490;SDS011;11412;50.802;4.350;2023-01-25T16:39:04;66.00;;;40.63;;
22490;SDS011;11412;50.802;4.350;2023-01-25T16:41:33;69.00;;;40.80;;
22490;SDS011;11412;50.802;4.350;2023-01-25T16:43:59;71.35;;;42.05;;
22490;SDS011;11412;50.802;4.350;2023-01-25T16:46:25;65.05;;;40.15;;
22490;SDS011;11412;50.802;4.350;2023-01-25T16:48:51;68.80;;;41.05;;
22490;SDS011;11412;50.802;4.350;2023-01-25T16:51:18;66.88;;;41.05;;